createdAt,value
2019-02-08T00:00:11.456Z,28.37
2019-02-08T00:02:37.718Z,32.13
2019-02-08T00:05:05.443Z,30.07
2019-02-08T00:07:32.018Z,32.20
2019-02-08T00:09:58.174Z,23.13
2019-02-08T00:12:24.454Z,22.50
2019-02-08T00:14:50.775Z,24.30
2019-02-08T00:17:17.043Z,28.03
2019-02-08T00:19:43.218Z,23.73
2019-02-08T00:22:10.220Z,25.27
2019-02-08T00:24:36.411Z,23.63
2019-02-08T00:27:03.579Z,22.70
2019-02-08T00:29:29.790Z,32.43
2019-02-08T00:31:56.069Z,31.50
2019-02-08T00:34:22.221Z,23.33
2019-02-08T00:36:48.429Z,27.17
2019-02-08T00:39:14.695Z,28.27
2019-02-08T00:41:41.302Z,27.03
2019-02-08T00:44:08.794Z,25.47
2019-02-08T00:46:34.947Z,28.70
2019-02-08T00:49:01.211Z,24.40
2019-02-08T00:51:27.511Z,24.67
2019-02-08T00:53:53.789Z,30.93
2019-02-08T00:56:20.057Z,30.67
2019-02-08T00:58:46.268Z,28.50
2019-02-08T01:01:12.427Z,25.30
2019-02-08T01:03:38.698Z,25.73
2019-02-08T01:06:05.504Z,41.10
2019-02-08T01:08:31.658Z,22.73
2019-02-08T01:10:57.918Z,22.83
2019-02-08T01:13:24.219Z,31.67
2019-02-08T01:15:50.479Z,27.90
2019-02-08T01:18:16.653Z,25.97
2019-02-08T01:20:42.948Z,26.20
2019-02-08T01:23:09.122Z,28.03
2019-02-08T01:25:35.466Z,26.53
2019-02-08T01:28:01.668Z,34.33
2019-02-08T01:30:30.668Z,23.87
2019-02-08T01:32:56.926Z,32.13
2019-02-08T01:35:23.515Z,25.07
2019-02-08T01:37:49.888Z,24.87
2019-02-08T01:40:22.948Z,24.67
2019-02-08T01:42:49.150Z,26.23
2019-02-08T01:45:21.314Z,25.57
2019-02-08T01:47:47.478Z,22.00
2019-02-08T01:50:16.792Z,25.60
2019-02-08T01:52:42.940Z,29.17
2019-02-08T01:55:09.403Z,31.93
2019-02-08T01:57:37.852Z,31.85
2019-02-08T02:00:28.567Z,35.93
2019-02-08T02:02:55.316Z,36.63
2019-02-08T02:05:22.186Z,30.93
2019-02-08T02:07:48.450Z,33.43
2019-02-08T02:10:34.120Z,30.20
2019-02-08T02:13:00.602Z,33.47
2019-02-08T02:15:27.165Z,36.20
2019-02-08T02:17:53.378Z,33.00
2019-02-08T02:20:28.169Z,36.83
2019-02-08T02:22:54.322Z,24.60
2019-02-08T02:25:21.038Z,31.17
2019-02-08T02:27:47.322Z,34.67
2019-02-08T02:30:23.094Z,27.43
2019-02-08T02:32:49.353Z,28.40
2019-02-08T02:35:15.625Z,31.00
2019-02-08T02:37:41.908Z,31.50
2019-02-08T02:40:16.463Z,27.27
2019-02-08T02:42:42.632Z,29.77
2019-02-08T02:45:50.439Z,30.63
2019-02-08T02:48:16.613Z,33.27
2019-02-08T02:50:42.790Z,29.00
2019-02-08T02:53:09.501Z,41.73
2019-02-08T02:55:35.755Z,38.30
2019-02-08T02:58:02.232Z,42.70
2019-02-08T03:00:34.954Z,51.40
2019-02-08T03:03:01.239Z,74.37
2019-02-08T03:05:27.500Z,55.83
2019-02-08T03:07:53.700Z,48.67
2019-02-08T03:10:21.273Z,36.50
2019-02-08T03:12:47.520Z,41.13
2019-02-08T03:15:16.948Z,47.33
2019-02-08T03:17:43.205Z,54.00
2019-02-08T03:20:12.510Z,55.43
2019-02-08T03:22:38.683Z,49.97
2019-02-08T03:25:08.258Z,35.17
2019-02-08T03:27:34.432Z,39.97
2019-02-08T03:30:00.771Z,42.03
2019-02-08T03:32:27.041Z,35.90
2019-02-08T03:34:53.210Z,37.93
2019-02-08T03:37:19.425Z,44.07
2019-02-08T03:39:45.692Z,46.50
2019-02-08T03:42:11.857Z,43.17
2019-02-08T03:44:38.186Z,48.00
2019-02-08T03:47:04.531Z,44.23
2019-02-08T03:49:30.694Z,42.90
2019-02-08T03:51:56.892Z,40.83
2019-02-08T03:54:23.050Z,36.97
2019-02-08T03:56:49.325Z,46.53
2019-02-08T03:59:15.521Z,34.27
2019-02-08T04:01:41.790Z,37.83
2019-02-08T04:04:13.229Z,34.67
2019-02-08T04:06:39.736Z,33.60
2019-02-08T04:09:07.319Z,43.80
2019-02-08T04:11:33.478Z,50.53
2019-02-08T04:13:59.682Z,42.37
2019-02-08T04:16:25.951Z,50.80
2019-02-08T04:18:52.119Z,45.57
2019-02-08T04:21:18.314Z,46.23
2019-02-08T04:23:44.485Z,55.53
2019-02-08T04:26:10.738Z,47.60
2019-02-08T04:28:37.045Z,40.23
2019-02-08T04:31:03.359Z,42.90
2019-02-08T04:33:29.524Z,34.00
2019-02-08T04:35:55.717Z,32.30
2019-02-08T04:38:21.883Z,31.77
2019-02-08T04:40:48.169Z,30.07
2019-02-08T04:43:14.487Z,36.23
2019-02-08T04:45:40.654Z,33.27
2019-02-08T04:48:06.814Z,38.33
2019-02-08T04:50:33.116Z,39.10
2019-02-08T04:52:59.295Z,43.37
2019-02-08T04:55:26.056Z,48.43
2019-02-08T04:57:52.360Z,31.90
2019-02-08T05:00:21.727Z,31.17
2019-02-08T05:02:47.895Z,33.93
2019-02-08T05:05:14.082Z,35.77
2019-02-08T05:07:40.351Z,44.37
2019-02-08T05:10:10.225Z,37.63
2019-02-08T05:12:36.530Z,37.67
2019-02-08T05:15:05.689Z,50.27
2019-02-08T05:17:31.847Z,53.00
2019-02-08T05:19:58.144Z,51.73
2019-02-08T05:22:24.295Z,49.73
2019-02-08T05:24:50.460Z,66.83
2019-02-08T05:27:16.779Z,54.73
2019-02-08T05:29:43.063Z,47.97
2019-02-08T05:32:09.436Z,52.33
2019-02-08T05:34:35.629Z,59.87
2019-02-08T05:37:01.791Z,93.60
2019-02-08T05:39:28.054Z,118.60
2019-02-08T05:41:54.358Z,150.97
2019-02-08T05:44:20.622Z,87.93
2019-02-08T05:46:46.894Z,100.20
2019-02-08T05:49:13.088Z,127.63
2019-02-08T05:51:39.350Z,128.73
2019-02-08T05:54:05.832Z,118.53
2019-02-08T05:56:32.038Z,220.43
2019-02-08T05:58:58.319Z,146.40
2019-02-08T06:01:24.590Z,142.43
2019-02-08T06:03:50.879Z,91.80
2019-02-08T06:06:17.162Z,86.73
2019-02-08T06:08:43.633Z,82.60
2019-02-08T06:11:09.834Z,89.13
2019-02-08T06:13:36.228Z,87.40
2019-02-08T06:16:03.020Z,94.73
2019-02-08T06:18:29.215Z,91.97
2019-02-08T06:20:55.476Z,109.90
2019-02-08T06:23:21.658Z,85.93
2019-02-08T06:25:48.063Z,123.00
2019-02-08T06:28:14.338Z,88.83
2019-02-08T06:30:40.609Z,129.97
2019-02-08T06:33:06.836Z,201.43
2019-02-08T06:35:33.011Z,99.33
2019-02-08T06:37:59.320Z,109.67
2019-02-08T06:40:28.914Z,138.83
2019-02-08T06:42:55.179Z,122.07
2019-02-08T06:45:24.044Z,121.77
2019-02-08T06:47:50.446Z,77.90
2019-02-08T06:50:19.422Z,68.83
2019-02-08T06:52:45.574Z,43.23
2019-02-08T06:55:12.264Z,49.20
2019-02-08T06:57:40.331Z,47.73
2019-02-08T07:00:14.117Z,55.20
2019-02-08T07:02:42.218Z,70.63
2019-02-08T07:05:19.508Z,70.67
2019-02-08T07:07:47.607Z,75.13
2019-02-08T07:10:18.585Z,78.27
2019-02-08T07:12:49.462Z,85.03
2019-02-08T07:15:20.579Z,85.07
2019-02-08T07:17:51.705Z,73.77
2019-02-08T07:20:19.908Z,73.30
2019-02-08T07:22:53.565Z,57.50
2019-02-08T07:25:36.662Z,61.40
2019-02-08T07:28:19.738Z,57.37
2019-02-08T07:30:50.795Z,50.80
2019-02-08T07:33:33.700Z,51.83
2019-02-08T07:36:05.058Z,48.10
2019-02-08T07:38:36.466Z,49.70
2019-02-08T07:41:06.266Z,41.47
2019-02-08T07:43:46.990Z,47.00
2019-02-08T07:46:21.896Z,43.97
2019-02-08T07:48:50.474Z,34.57
2019-02-08T07:51:24.796Z,31.67
2019-02-08T07:54:09.219Z,30.47
2019-02-08T07:56:39.881Z,40.67
2019-02-08T07:59:10.454Z,45.50
2019-02-08T08:01:39.034Z,43.70
2019-02-08T08:04:09.224Z,42.83
2019-02-08T08:06:43.856Z,36.47
2019-02-08T08:09:14.972Z,44.67
2019-02-08T08:11:46.140Z,42.50
2019-02-08T08:14:21.490Z,37.67
2019-02-08T08:17:06.383Z,45.43
2019-02-08T08:19:44.535Z,50.87
2019-02-08T08:22:28.461Z,43.73
2019-02-08T08:25:02.264Z,41.90
2019-02-08T08:27:34.144Z,49.30
2019-02-08T08:30:05.848Z,44.37
2019-02-08T08:32:36.230Z,46.20
2019-02-08T08:35:24.168Z,49.93
2019-02-08T08:37:53.961Z,50.03
2019-02-08T08:40:44.931Z,42.17
2019-02-08T08:43:33.018Z,67.03
2019-02-08T08:46:12.098Z,57.80
2019-02-08T08:48:58.571Z,56.60
2019-02-08T08:51:40.775Z,57.30
2019-02-08T08:54:26.231Z,50.23
2019-02-08T08:57:22.279Z,55.50
2019-02-08T09:00:08.795Z,48.93
2019-02-08T09:02:49.280Z,60.84
2019-02-08T09:05:34.524Z,54.50
2019-02-08T09:08:33.425Z,53.83
2019-02-08T09:11:30.522Z,64.53
2019-02-08T09:14:18.520Z,52.97
2019-02-08T09:17:08.043Z,51.27
2019-02-08T09:19:44.036Z,53.50
2019-02-08T09:22:35.062Z,50.37
2019-02-08T09:25:29.313Z,67.57
2019-02-08T09:28:08.112Z,67.03
2019-02-08T09:31:09.793Z,47.80
2019-02-08T09:34:00.835Z,40.90
2019-02-08T09:36:47.814Z,49.93
2019-02-08T09:39:26.213Z,47.07
2019-02-08T09:42:18.614Z,35.57
2019-02-08T09:44:57.573Z,52.30
2019-02-08T09:47:45.503Z,60.30
2019-02-08T09:50:44.262Z,88.70
2019-02-08T09:53:30.540Z,63.73
2019-02-08T09:56:27.668Z,64.77
2019-02-08T09:59:13.972Z,49.40
2019-02-08T10:02:17.468Z,73.10
2019-02-08T10:04:50.033Z,60.50
2019-02-08T10:07:19.787Z,56.27
2019-02-08T10:10:10.762Z,42.07
2019-02-08T10:12:55.622Z,43.60
2019-02-08T10:15:59.035Z,57.17
2019-02-08T10:18:37.956Z,61.80
2019-02-08T10:21:27.813Z,49.73
2019-02-08T10:24:15.918Z,53.53
2019-02-08T10:27:00.638Z,52.87
2019-02-08T10:30:02.450Z,53.67
2019-02-08T10:32:52.075Z,43.07
2019-02-08T10:35:36.615Z,44.33
2019-02-08T10:38:29.012Z,51.23
2019-02-08T10:41:07.750Z,42.20
2019-02-08T10:43:54.237Z,41.13
2019-02-08T10:46:39.232Z,40.03
2019-02-08T10:49:17.962Z,40.90
2019-02-08T10:51:59.771Z,36.20
2019-02-08T10:54:44.871Z,47.67
2019-02-08T10:57:27.330Z,37.17
2019-02-08T11:00:00.044Z,44.20
2019-02-08T11:03:03.639Z,26.83
2019-02-08T11:05:39.349Z,29.67
2019-02-08T11:08:32.209Z,35.70
2019-02-08T11:11:23.011Z,33.63
2019-02-08T11:14:12.903Z,39.07
2019-02-08T11:17:19.222Z,32.10
2019-02-08T11:19:50.891Z,26.80
2019-02-08T11:22:17.152Z,32.27
2019-02-08T11:24:43.498Z,26.17
2019-02-08T11:27:10.048Z,24.73
2019-02-08T11:29:38.366Z,22.00
2019-02-08T11:32:08.258Z,14.93
2019-02-08T11:34:34.425Z,14.97
2019-02-08T11:37:07.211Z,26.53
2019-02-08T11:39:28.948Z,39.27
2019-02-08T11:41:55.154Z,26.90
2019-02-08T11:44:21.642Z,21.47
2019-02-08T11:46:47.940Z,17.80
2019-02-08T11:49:14.430Z,23.20
2019-02-08T11:51:41.120Z,27.30
2019-02-08T11:54:07.416Z,23.77
2019-02-08T11:56:34.023Z,25.30
2019-02-08T11:59:00.494Z,21.83
2019-02-08T12:01:28.601Z,18.70
2019-02-08T12:03:54.776Z,20.60
2019-02-08T12:06:21.037Z,23.73
2019-02-08T12:08:47.351Z,18.60
2019-02-08T12:11:13.492Z,26.27
2019-02-08T12:13:39.670Z,23.10
2019-02-08T12:16:05.976Z,17.90
2019-02-08T12:18:32.226Z,19.03
2019-02-08T12:20:58.510Z,20.67
2019-02-08T12:23:24.806Z,16.70
2019-02-08T12:25:51.073Z,15.80
2019-02-08T12:28:17.534Z,17.30
2019-02-08T12:30:44.722Z,17.13
2019-02-08T12:33:11.375Z,19.97
2019-02-08T12:35:37.640Z,30.87
2019-02-08T12:38:04.051Z,19.40
2019-02-08T12:40:30.366Z,16.23
2019-02-08T12:42:56.652Z,19.67
2019-02-08T12:45:22.854Z,21.60
2019-02-08T12:47:49.008Z,16.13
2019-02-08T12:50:19.892Z,20.87
2019-02-08T12:52:46.098Z,21.53
2019-02-08T12:55:14.669Z,20.67
2019-02-08T12:57:40.830Z,16.37
2019-02-08T13:00:16.924Z,15.23
2019-02-08T13:02:43.190Z,18.83
2019-02-08T13:05:11.150Z,18.07
2019-02-08T13:07:37.359Z,15.40
2019-02-08T13:10:09.960Z,14.70
2019-02-08T13:12:36.234Z,17.20
2019-02-08T13:15:05.916Z,20.27
2019-02-08T13:17:32.089Z,14.73
2019-02-08T13:19:58.350Z,18.30
2019-02-08T13:22:24.557Z,25.37
2019-02-08T13:24:50.730Z,19.23
2019-02-08T13:27:16.998Z,29.20
2019-02-08T13:29:43.204Z,30.93
2019-02-08T13:32:09.390Z,20.03
2019-02-08T13:34:35.540Z,25.97
2019-02-08T13:37:02.211Z,20.33
2019-02-08T13:39:28.473Z,28.77
2019-02-08T13:41:54.699Z,22.27
2019-02-08T13:44:20.991Z,27.43
2019-02-08T13:46:47.263Z,28.93
2019-02-08T13:49:13.404Z,15.87
2019-02-08T13:51:39.597Z,20.13
2019-02-08T13:54:05.774Z,30.97
2019-02-08T13:56:32.063Z,25.30
2019-02-08T13:58:58.352Z,19.77
2019-02-08T14:01:24.611Z,26.73
2019-02-08T14:03:50.782Z,25.20
2019-02-08T14:06:16.987Z,19.07
2019-02-08T14:08:43.161Z,20.13
2019-02-08T14:11:09.314Z,24.00
2019-02-08T14:13:40.497Z,25.87
2019-02-08T14:16:03.946Z,18.90
2019-02-08T14:18:30.099Z,27.50
2019-02-08T14:20:56.290Z,22.43
2019-02-08T14:23:24.275Z,21.30
2019-02-08T14:25:50.596Z,28.13
2019-02-08T14:28:16.746Z,22.83
2019-02-08T14:30:43.321Z,27.43
2019-02-08T14:33:12.230Z,23.57
2019-02-08T14:35:38.626Z,21.93
2019-02-08T14:38:08.495Z,23.17
2019-02-08T14:40:35.125Z,19.23
2019-02-08T14:43:01.331Z,19.07
2019-02-08T14:45:27.800Z,25.03
2019-02-08T14:47:54.103Z,24.63
2019-02-08T14:50:23.994Z,28.30
2019-02-08T14:52:50.562Z,26.77
2019-02-08T14:55:16.747Z,19.60
2019-02-08T14:57:44.132Z,56.23
2019-02-08T15:00:19.453Z,28.47
2019-02-08T15:02:45.702Z,27.27
2019-02-08T15:05:14.216Z,26.60
2019-02-08T15:07:40.480Z,29.53
2019-02-08T15:10:25.624Z,22.77
2019-02-08T15:12:51.901Z,18.17
2019-02-08T15:15:18.458Z,25.80
2019-02-08T15:17:44.640Z,22.70
2019-02-08T15:20:14.414Z,31.23
2019-02-08T15:22:40.568Z,23.60
2019-02-08T15:25:08.281Z,24.17
2019-02-08T15:27:34.747Z,31.90
2019-02-08T15:30:00.908Z,33.47
2019-02-08T15:32:27.107Z,24.90
2019-02-08T15:34:53.282Z,35.17
2019-02-08T15:37:19.640Z,27.63
2019-02-08T15:39:45.837Z,34.57
2019-02-08T15:42:12.000Z,31.70
2019-02-08T15:44:38.312Z,75.90
2019-02-08T15:47:04.722Z,28.50
2019-02-08T15:49:30.881Z,33.67
2019-02-08T15:51:57.151Z,28.57
2019-02-08T15:54:23.446Z,26.30
2019-02-08T15:56:49.605Z,26.50
2019-02-08T15:59:15.866Z,33.00
2019-02-08T16:01:42.301Z,38.53
2019-02-08T16:04:08.551Z,29.37
2019-02-08T16:06:34.827Z,40.83
2019-02-08T16:09:01.029Z,31.43
2019-02-08T16:11:27.180Z,40.73
2019-02-08T16:13:53.439Z,27.17
2019-02-08T16:16:19.645Z,35.60
2019-02-08T16:18:45.911Z,33.23
2019-02-08T16:21:12.370Z,39.53
2019-02-08T16:23:38.560Z,33.17
2019-02-08T16:26:04.825Z,54.77
2019-02-08T16:28:31.090Z,47.30
2019-02-08T16:30:57.383Z,107.40
2019-02-08T16:33:23.669Z,83.47
2019-02-08T16:35:57.805Z,98.70
2019-02-08T16:38:23.984Z,82.63
2019-02-08T16:40:50.263Z,75.50
2019-02-08T16:43:16.424Z,77.90
2019-02-08T16:45:42.692Z,77.23
2019-02-08T16:48:11.567Z,81.90
2019-02-08T16:50:38.141Z,61.83
2019-02-08T16:53:06.299Z,64.93
2019-02-08T16:55:34.357Z,65.20
2019-02-08T16:58:00.522Z,63.37
2019-02-08T17:00:29.816Z,43.37
2019-02-08T17:02:58.685Z,70.10
2019-02-08T17:05:26.353Z,71.30
2019-02-08T17:07:52.548Z,65.53
2019-02-08T17:10:18.819Z,103.53
2019-02-08T17:12:45.072Z,324.00
2019-02-08T17:15:14.885Z,161.00
2019-02-08T17:17:41.191Z,105.30
2019-02-08T17:20:16.844Z,129.07
2019-02-08T17:22:43.024Z,291.27
2019-02-08T17:25:09.393Z,359.17
2019-02-08T17:27:35.649Z,141.60
2019-02-08T17:30:03.633Z,430.67
2019-02-08T17:32:29.805Z,768.13
2019-02-08T17:34:55.973Z,138.80
2019-02-08T17:37:22.277Z,153.17
2019-02-08T17:39:48.541Z,106.83
2019-02-08T17:42:14.700Z,89.90
2019-02-08T17:44:40.999Z,90.23
2019-02-08T17:47:07.342Z,107.60
2019-02-08T17:49:33.478Z,74.23
2019-02-08T17:51:59.779Z,77.03
2019-02-08T17:54:26.052Z,75.07
2019-02-08T17:56:52.213Z,62.57
2019-02-08T17:59:18.906Z,63.73
2019-02-08T18:01:45.171Z,61.00
2019-02-08T18:04:11.320Z,55.70
2019-02-08T18:06:37.648Z,166.17
2019-02-08T18:09:06.012Z,215.10
2019-02-08T18:11:32.277Z,172.00
2019-02-08T18:13:58.469Z,73.53
2019-02-08T18:16:24.633Z,87.90
2019-02-08T18:18:50.802Z,74.40
2019-02-08T18:21:16.993Z,62.90
2019-02-08T18:23:43.265Z,80.80
2019-02-08T18:26:09.525Z,92.23
2019-02-08T18:28:35.831Z,44.87
2019-02-08T18:31:02.285Z,141.73
2019-02-08T18:33:28.446Z,70.63
2019-02-08T18:35:54.644Z,74.80
2019-02-08T18:38:20.802Z,51.53
2019-02-08T18:40:47.069Z,53.60
2019-02-08T18:43:13.427Z,55.23
2019-02-08T18:45:39.592Z,59.43
2019-02-08T18:48:06.310Z,54.70
2019-02-08T18:50:38.841Z,52.63
2019-02-08T18:53:05.930Z,86.53
2019-02-08T18:55:32.180Z,80.27
2019-02-08T18:57:58.383Z,68.13
2019-02-08T19:00:27.777Z,54.70
2019-02-08T19:02:53.957Z,111.20
2019-02-08T19:05:20.168Z,98.73
2019-02-08T19:07:46.458Z,125.40
2019-02-08T19:10:15.358Z,62.33
2019-02-08T19:12:41.568Z,57.67
2019-02-08T19:15:11.058Z,74.70
2019-02-08T19:17:37.222Z,117.77
2019-02-08T19:20:06.729Z,96.93
2019-02-08T19:22:32.893Z,81.27
2019-02-08T19:24:59.061Z,90.87
2019-02-08T19:27:25.256Z,84.20
2019-02-08T19:29:51.414Z,83.23
2019-02-08T19:32:17.568Z,86.43
2019-02-08T19:34:43.772Z,99.83
2019-02-08T19:37:10.040Z,99.80
2019-02-08T19:39:36.299Z,170.53
2019-02-08T19:42:02.924Z,109.70
2019-02-08T19:44:29.099Z,55.43
2019-02-08T19:46:55.387Z,139.87
2019-02-08T19:49:24.471Z,306.63
2019-02-08T19:51:50.765Z,256.20
2019-02-08T19:54:17.034Z,71.70
2019-02-08T19:56:43.347Z,59.63
2019-02-08T19:59:09.617Z,83.37
2019-02-08T20:01:35.890Z,221.00
2019-02-08T20:04:03.884Z,69.23
2019-02-08T20:06:30.165Z,58.97
2019-02-08T20:08:56.433Z,44.37
2019-02-08T20:11:22.770Z,108.57
2019-02-08T20:13:49.045Z,117.37
2019-02-08T20:16:15.208Z,80.73
2019-02-08T20:18:41.405Z,57.70
2019-02-08T20:21:07.712Z,45.10
2019-02-08T20:23:33.855Z,57.93
2019-02-08T20:26:02.002Z,46.13
2019-02-08T20:28:28.631Z,47.20
2019-02-08T20:30:54.896Z,54.07
2019-02-08T20:33:22.891Z,42.80
2019-02-08T20:35:51.481Z,36.00
2019-02-08T20:38:17.654Z,36.63
2019-02-08T20:40:48.600Z,34.00
2019-02-08T20:43:14.869Z,35.73
2019-02-08T20:45:41.512Z,35.77
2019-02-08T20:48:16.620Z,45.77
2019-02-08T20:50:43.036Z,48.03
2019-02-08T20:53:09.223Z,47.63
2019-02-08T20:55:36.189Z,60.53
2019-02-08T20:58:05.115Z,69.03
2019-02-08T21:00:35.648Z,69.30
2019-02-08T21:03:05.875Z,55.30
2019-02-08T21:05:32.402Z,74.30
2019-02-08T21:07:59.359Z,54.30
2019-02-08T21:10:26.454Z,66.83
2019-02-08T21:12:55.103Z,52.50
2019-02-08T21:15:22.507Z,69.97
2019-02-08T21:17:48.697Z,61.33
2019-02-08T21:20:16.371Z,47.40
2019-02-08T21:22:42.536Z,45.53
2019-02-08T21:25:18.336Z,54.57
2019-02-08T21:27:44.612Z,60.93
2019-02-08T21:30:14.081Z,50.57
2019-02-08T21:32:40.372Z,48.73
2019-02-08T21:35:09.237Z,34.77
2019-02-08T21:37:35.866Z,46.33
2019-02-08T21:40:04.468Z,46.03
2019-02-08T21:42:30.726Z,40.63
2019-02-08T21:44:56.888Z,40.37
2019-02-08T21:47:23.196Z,38.33
2019-02-08T21:49:49.357Z,41.90
2019-02-08T21:52:15.568Z,37.83
2019-02-08T21:54:41.869Z,48.17
2019-02-08T21:57:08.140Z,48.30
2019-02-08T21:59:34.299Z,38.00
2019-02-08T22:02:00.617Z,48.97
2019-02-08T22:04:26.784Z,63.47
2019-02-08T22:06:52.953Z,70.40
2019-02-08T22:09:19.262Z,55.33
2019-02-08T22:11:46.476Z,63.13
2019-02-08T22:14:12.632Z,59.03
2019-02-08T22:16:38.832Z,35.13
2019-02-08T22:19:05.203Z,33.13
2019-02-08T22:21:31.711Z,32.10
2019-02-08T22:23:57.926Z,29.93
2019-02-08T22:26:24.222Z,34.63
2019-02-08T22:28:50.438Z,52.77
2019-02-08T22:31:16.606Z,38.57
2019-02-08T22:33:42.859Z,35.03
2019-02-08T22:36:09.016Z,35.83
2019-02-08T22:38:35.198Z,53.33
2019-02-08T22:41:01.463Z,33.43
2019-02-08T22:43:27.644Z,37.97
2019-02-08T22:45:53.952Z,34.70
2019-02-08T22:48:20.118Z,32.83
2019-02-08T22:50:46.882Z,92.07
2019-02-08T22:53:13.227Z,46.70
2019-02-08T22:55:39.395Z,35.20
2019-02-08T22:58:07.361Z,27.87
2019-02-08T23:00:40.310Z,50.57
2019-02-08T23:03:08.275Z,35.10
2019-02-08T23:05:34.433Z,56.27
2019-02-08T23:08:00.628Z,159.67
2019-02-08T23:10:27.094Z,257.87
2019-02-08T23:12:53.262Z,312.80
2019-02-08T23:15:19.457Z,133.17
2019-02-08T23:17:45.624Z,118.13
2019-02-08T23:20:11.992Z,145.43
2019-02-08T23:22:38.192Z,159.17
2019-02-08T23:25:05.259Z,33.73
2019-02-08T23:27:31.528Z,50.87
2019-02-08T23:29:57.829Z,40.07
2019-02-08T23:32:23.988Z,43.47
2019-02-08T23:34:50.266Z,35.37
2019-02-08T23:37:16.571Z,39.77
2019-02-08T23:39:42.734Z,36.40
2019-02-08T23:42:09.007Z,34.53
2019-02-08T23:44:35.317Z,28.37
2019-02-08T23:47:01.493Z,28.70
2019-02-08T23:49:27.765Z,30.60
2019-02-08T23:51:54.053Z,28.90
2019-02-08T23:54:20.431Z,22.43
2019-02-08T23:56:46.703Z,26.20
2019-02-08T23:59:12.998Z,23.30
